الصفحة الرئيسية
METAR-TAF:

METAR-TAF

مطار :

دايجو, كوريا الجنوبية

دائرة عرض: 35-54N, خط طول: 128-39E, ارتفاع: 35 متر

مراقبة الطقس الحالي

تاريخ ووقت الإصدار 33 دقيقة قبل الساعة 01:00UTC
ريح 11 عقدة من الشمال الغربي
درجة الحرارة 25°درجة مئوية
الرطوبة 47%
ضغط 1010 hPa
الرؤية 10 كم أو أكثر
غيوم قليلة على ارتفاع 4000 قدم
غيوم مفككة على ارتفاع 25000 قدم

METAR: RKTN 250100Z 31011KT 9999 FEW040 BKN250 25/13 Q1010

زمن: 10:33 (01:33 UTC)

توقعات

تاريخ ووقت الإصدار 2ساعات و 33 دقيقة قبل الساعة 23:00UTC
التوقعات صالحة من25 الساعة 00 UTC إلى 26 الساعة 06 UTC
ريح 8 عقدة من الغرب/الشمال الغربي
الرؤية 10 كم أو أكثر
الغيوم لا تقل 1500 م ولا وجود لمزنة ركامية السحاب الأسود

TAF: RKTN 242300Z 2500/2606 30008KT CAVOK TX30/2506Z TN19/2521Z

أرصاد الطقس والتوقعات من أكثر من 4000 مطار (تقارير الطقس للمطار METAR والتنبؤ بالطقس بالمطارTAF).

المحطات المتاحة هي النقط الصفراء والحمراء على الخريطة.

حرك المؤشر فوق النقطة لمعرفة اسم المحطة.

ثم انقر لمعرفة أرصاد وتوقعات الطقس.

لتغيير الخارطة: اضغط على الأزرار الخضراء مع رمز الصليب الأسود للتكبير. على الزر الأخضر مع شرطة للتصغير، أو على الأسهم الخضراء للخرائط المجاورة.


METAR-TAF: